Luna Pier, Michigan
Current Conditions -  °F | °C
As of 4:10 AM on Monday 22 Dec 2014 (Local Time) from KTTF Reporting Station
Clear Clear  
Wind Chill: 28°   Ceiling: Unl
Heat Index: 28°   Visibility: 7mi
Dew Point: 27°   Wind: 3mph
Humidity: 93%   Direction: 110°ESE
Pressure: 30.1"   Gusts: NA
Location:  41.81°N, 83.44°W
Report Text: KTTF 220910Z AUTO 11003KT 7SM CLR M02/M03 A3010 RMK AO2
Loading
Personal Weather Stations






























Interactive Weather Map New forecast layout! Learn more

10-Day Weather Forecast

Advertisements
Track Severe Weather on mobile